Time,TemperatureF,DewpointF,PressureIn,WindDirection,WindDirectionDegrees,WindSpeedMPH,WindSpeedGustMPH,Humidity,HourlyPrecipIn,Conditions,Clouds,dailyrainin,SoftwareType,DateUTC
2013-08-27 00:14:00,81.0,69.4,29.87,WNW,292,0.0,16.0,68,0.00,,,-99.99,Weather View 32 v60,2013-08-27 05:14:00,
2013-08-27 00:29:00,81.0,69.4,29.88,SW,225,0.0,15.0,68,0.00,,,-99.99,Weather View 32 v60,2013-08-27 05:29:00,
2013-08-27 00:44:00,81.0,69.8,29.88,SW,225,6.0,12.0,69,0.00,,,-99.99,Weather View 32 v60,2013-08-27 05:44:00,
2013-08-27 00:59:00,80.0,69.3,29.88,West,270,0.0,12.0,70,0.00,,,-99.99,Weather View 32 v60,2013-08-27 05:59:00,
2013-08-27 01:14:00,80.0,69.3,29.89,SW,225,6.0,12.0,70,0.00,,,-99.99,Weather View 32 v60,2013-08-27 06:14:00,
2013-08-27 01:29:00,80.0,69.7,29.89,West,270,0.0,11.0,71,0.00,,,-99.99,Weather View 32 v60,2013-08-27 06:29:00,
2013-08-27 01:44:00,80.0,69.7,29.88,NW,315,0.0,12.0,71,0.00,,,-99.99,Weather View 32 v60,2013-08-27 06:44:00,
2013-08-27 01:59:00,79.0,68.8,29.88,WNW,292,1.0,13.0,71,0.00,,,-99.99,Weather View 32 v60,2013-08-27 06:59:00,
2013-08-27 02:14:00,79.0,68.8,29.88,WSW,247,3.0,16.0,71,0.00,,,-99.99,Weather View 32 v60,2013-08-27 07:14:00,
2013-08-27 02:29:00,79.0,69.2,29.88,WSW,247,7.0,16.0,72,0.00,,,-99.99,Weather View 32 v60,2013-08-27 07:29:00,
2013-08-27 02:44:00,78.0,68.2,29.88,SW,225,12.0,16.0,72,0.00,,,-99.99,Weather View 32 v60,2013-08-27 07:44:00,
2013-08-27 02:59:00,78.0,68.6,29.89,West,270,0.0,16.0,73,0.00,,,-99.99,Weather View 32 v60,2013-08-27 07:59:00,
2013-08-27 03:14:00,78.0,69.0,29.89,SW,225,2.0,14.0,74,0.00,,,-99.99,Weather View 32 v60,2013-08-27 08:14:00,
2013-08-27 03:29:00,77.0,68.4,29.89,West,270,0.0,14.0,75,0.00,,,-99.99,Weather View 32 v60,2013-08-27 08:29:00,
2013-08-27 03:44:00,77.0,68.8,29.89,WSW,247,0.0,12.0,76,0.00,,,-99.99,Weather View 32 v60,2013-08-27 08:44:00,
2013-08-27 03:59:00,77.0,68.4,29.89,West,270,2.0,10.0,75,0.00,,,-99.99,Weather View 32 v60,2013-08-27 08:59:00,
2013-08-27 04:14:00,77.0,68.8,29.89,WSW,247,0.0,12.0,76,0.00,,,-99.99,Weather View 32 v60,2013-08-27 09:14:00,
2013-08-27 04:29:00,77.0,68.8,29.88,SSE,157,2.0,12.0,76,0.00,,,-99.99,Weather View 32 v60,2013-08-27 09:29:00,
2013-08-27 04:44:00,77.0,68.8,29.88,West,270,0.0,12.0,76,0.00,,,-99.99,Weather View 32 v60,2013-08-27 09:44:00,
2013-08-27 04:59:00,77.0,68.4,29.88,SW,225,1.0,12.0,75,0.00,,,-99.99,Weather View 32 v60,2013-08-27 09:59:00,
2013-08-27 05:14:00,76.0,67.9,29.88,WSW,247,4.0,13.0,76,0.00,,,-99.99,Weather View 32 v60,2013-08-27 10:14:00,
2013-08-27 05:20:00,76.0,67.9,29.88,WSW,247,4.0,13.0,76,0.00,,,-99.99,Weather View 32 v60,2013-08-27 10:20:00,
2013-08-27 05:29:00,77.0,68.0,29.87,WSW,247,0.0,17.0,74,0.00,,,-99.99,Weather View 32 v60,2013-08-27 10:29:00,
2013-08-27 05:44:00,77.0,68.0,29.88,West,270,2.0,17.0,74,0.00,,,-99.99,Weather View 32 v60,2013-08-27 10:44:00,
2013-08-27 05:59:00,76.0,67.1,29.89,West,270,3.0,17.0,74,0.00,,,-99.99,Weather View 32 v60,2013-08-27 10:59:00,
2013-08-27 06:14:00,76.0,67.5,29.89,WNW,292,4.0,17.0,75,0.00,,,-99.99,Weather View 32 v60,2013-08-27 11:14:00,
2013-08-27 06:20:00,76.0,67.5,29.89,WNW,292,4.0,17.0,75,0.00,,,-99.99,Weather View 32 v60,2013-08-27 11:20:00,
2013-08-27 06:29:00,76.0,67.5,29.89,WSW,247,3.0,10.0,75,0.00,,,-99.99,Weather View 32 v60,2013-08-27 11:29:00,
2013-08-27 06:44:00,76.0,67.9,29.89,SW,225,0.0,10.0,76,0.00,,,-99.99,Weather View 32 v60,2013-08-27 11:44:00,
2013-08-27 06:59:00,76.0,67.9,29.89,SW,225,0.0,10.0,76,0.00,,,-99.99,Weather View 32 v60,2013-08-27 11:59:00,
2013-08-27 07:14:00,76.0,67.5,29.89,SW,225,0.0,11.0,75,0.00,,,-99.99,Weather View 32 v60,2013-08-27 12:14:00,
2013-08-27 07:21:00,76.0,67.5,29.89,SW,225,0.0,11.0,75,0.00,,,-99.99,Weather View 32 v60,2013-08-27 12:21:00,
2013-08-27 07:29:00,76.0,67.1,29.89,WSW,247,3.0,11.0,74,0.00,,,-99.99,Weather View 32 v60,2013-08-27 12:29:00,
2013-08-27 07:44:00,77.0,67.2,29.88,SSW,202,5.0,12.0,72,0.00,,,-99.99,Weather View 32 v60,2013-08-27 12:44:00,
2013-08-27 07:59:00,78.0,67.0,29.89,West,270,0.0,15.0,69,0.00,,,-99.99,Weather View 32 v60,2013-08-27 12:59:00,
2013-08-27 08:14:00,79.0,67.9,29.88,WNW,292,1.0,15.0,69,0.00,,,-99.99,Weather View 32 v60,2013-08-27 13:14:00,
2013-08-27 08:21:00,79.0,67.9,29.88,WNW,292,1.0,15.0,69,0.00,,,-99.99,Weather View 32 v60,2013-08-27 13:21:00,
2013-08-27 08:29:00,79.0,67.9,29.88,West,270,2.0,15.0,69,0.00,,,-99.99,Weather View 32 v60,2013-08-27 13:29:00,
2013-08-27 08:44:00,80.0,68.0,29.88,SW,225,0.0,15.0,67,0.00,,,-99.99,Weather View 32 v60,2013-08-27 13:44:00,
2013-08-27 08:59:00,81.0,68.1,29.87,SW,225,0.0,12.0,65,0.00,,,-99.99,Weather View 32 v60,2013-08-27 13:59:00,
2013-08-27 09:14:00,82.0,68.1,29.88,SW,225,10.0,12.0,63,0.00,,,-99.99,Weather View 32 v60,2013-08-27 14:14:00,
2013-08-27 09:22:00,82.0,68.1,29.88,SW,225,10.0,12.0,63,0.00,,,-99.99,Weather View 32 v60,2013-08-27 14:22:00,
2013-08-27 09:29:00,81.0,68.1,29.88,WSW,247,0.0,13.0,65,0.00,,,-99.99,Weather View 32 v60,2013-08-27 14:29:00,
2013-08-27 09:44:00,82.0,68.6,29.88,WSW,247,0.0,13.0,64,0.00,,,-99.99,Weather View 32 v60,2013-08-27 14:44:00,
2013-08-27 09:59:00,83.0,69.1,29.87,West,270,0.0,13.0,63,0.00,,,-99.99,Weather View 32 v60,2013-08-27 14:59:00,
2013-08-27 10:14:00,84.0,70.9,29.87,SW,225,12.0,13.0,65,0.00,,,-99.99,Weather View 32 v60,2013-08-27 15:14:00,
2013-08-27 10:23:00,84.0,70.9,29.87,SW,225,12.0,13.0,65,0.00,,,-99.99,Weather View 32 v60,2013-08-27 15:23:00,
2013-08-27 10:29:00,84.0,70.5,29.87,SW,225,0.0,13.0,64,0.00,,,-99.99,Weather View 32 v60,2013-08-27 15:29:00,
2013-08-27 10:44:00,85.0,70.5,29.87,West,270,0.0,13.0,62,0.00,,,-99.99,Weather View 32 v60,2013-08-27 15:44:00,
2013-08-27 10:59:00,85.0,69.5,29.87,SW,225,4.0,12.0,60,0.00,,,-99.99,Weather View 32 v60,2013-08-27 15:59:00,
2013-08-27 11:14:00,86.0,70.9,29.86,NNW,337,0.0,12.0,61,0.00,,,-99.99,Weather View 32 v60,2013-08-27 16:14:00,
2013-08-27 11:23:00,86.0,70.9,29.86,NNW,337,0.0,12.0,61,0.00,,,-99.99,Weather View 32 v60,2013-08-27 16:23:00,
2013-08-27 11:29:00,87.0,70.9,29.85,WSW,247,0.0,11.0,59,0.00,,,-99.99,Weather View 32 v60,2013-08-27 16:29:00,
2013-08-27 11:44:00,87.0,70.9,29.85,West,270,0.0,9.0,59,0.00,,,-99.99,Weather View 32 v60,2013-08-27 16:44:00,
2013-08-27 11:59:00,88.0,71.8,29.85,WNW,292,0.0,9.0,59,0.00,,,-99.99,Weather View 32 v60,2013-08-27 16:59:00,
2013-08-27 12:14:00,89.0,71.2,29.85,West,270,0.0,9.0,56,0.00,,,-99.99,Weather View 32 v60,2013-08-27 17:14:00,
2013-08-27 12:24:00,89.0,71.2,29.85,West,270,0.0,9.0,56,0.00,,,-99.99,Weather View 32 v60,2013-08-27 17:24:00,
2013-08-27 12:29:00,90.0,71.0,29.84,NNW,337,0.0,9.0,54,0.00,,,-99.99,Weather View 32 v60,2013-08-27 17:29:00,
2013-08-27 12:44:00,91.0,72.0,29.83,West,270,0.0,6.0,54,0.00,,,-99.99,Weather View 32 v60,2013-08-27 17:44:00,
2013-08-27 12:59:00,91.0,72.0,29.83,WNW,292,0.0,0.0,54,0.00,,,-99.99,Weather View 32 v60,2013-08-27 17:59:00,
2013-08-27 13:14:00,92.0,73.4,29.82,WNW,292,0.0,0.0,55,0.00,,,-99.99,Weather View 32 v60,2013-08-27 18:14:00,
2013-08-27 13:24:00,92.0,73.4,29.82,WNW,292,0.0,0.0,55,0.00,,,-99.99,Weather View 32 v60,2013-08-27 18:24:00,
2013-08-27 13:44:00,91.0,72.0,29.83,SSW,202,0.0,8.0,54,0.00,,,-99.99,Weather View 32 v60,2013-08-27 18:44:00,
2013-08-27 13:59:00,91.0,74.6,29.82,West,270,0.0,10.0,59,0.00,,,-99.99,Weather View 32 v60,2013-08-27 18:59:00,
2013-08-27 14:14:00,93.0,73.8,29.82,SW,225,0.0,10.0,54,0.00,,,-99.99,Weather View 32 v60,2013-08-27 19:14:00,
2013-08-27 14:25:00,93.0,73.8,29.82,SW,225,0.0,10.0,54,0.00,,,-99.99,Weather View 32 v60,2013-08-27 19:25:00,
2013-08-27 14:44:00,92.0,75.0,29.82,West,270,0.0,10.0,58,0.00,,,-99.99,Weather View 32 v60,2013-08-27 19:44:00,
2013-08-27 14:59:00,94.0,73.6,29.80,WSW,247,0.0,9.0,52,0.00,,,-99.99,Weather View 32 v60,2013-08-27 19:59:00,
2013-08-27 15:14:00,94.0,76.4,29.80,WNW,292,0.0,9.0,57,0.00,,,-99.99,Weather View 32 v60,2013-08-27 20:14:00,
2013-08-27 15:26:00,94.0,76.4,29.80,WNW,292,0.0,9.0,57,0.00,,,-99.99,Weather View 32 v60,2013-08-27 20:26:00,
2013-08-27 15:44:00,94.0,74.7,29.80,WNW,292,0.0,8.0,54,0.00,,,-99.99,Weather View 32 v60,2013-08-27 20:44:00,
2013-08-27 15:59:00,94.0,75.8,29.80,WSW,247,0.0,8.0,56,0.00,,,-99.99,Weather View 32 v60,2013-08-27 20:59:00,
2013-08-27 16:14:00,94.0,75.3,29.81,WSW,247,0.0,9.0,55,0.00,,,-99.99,Weather View 32 v60,2013-08-27 21:14:00,
2013-08-27 16:26:00,94.0,75.3,29.81,WSW,247,0.0,9.0,55,0.00,,,-99.99,Weather View 32 v60,2013-08-27 21:26:00,
2013-08-27 16:59:00,92.0,75.0,29.81,SW,225,2.0,10.0,58,0.00,,,-99.99,Weather View 32 v60,2013-08-27 21:59:00,
2013-08-27 17:14:00,91.0,75.6,29.81,SW,225,4.0,17.0,61,0.00,,,-99.99,Weather View 32 v60,2013-08-27 22:14:00,
2013-08-27 17:27:00,91.0,75.6,29.81,SW,225,4.0,17.0,61,0.00,,,-99.99,Weather View 32 v60,2013-08-27 22:27:00,
2013-08-27 17:44:00,90.0,77.1,29.82,West,270,4.0,17.0,66,0.00,,,-99.99,Weather View 32 v60,2013-08-27 22:44:00,
2013-08-27 17:59:00,89.0,76.1,29.82,SW,225,2.0,17.0,66,0.00,,,-99.99,Weather View 32 v60,2013-08-27 22:59:00,
2013-08-27 18:14:00,89.0,77.0,29.82,WSW,247,3.0,11.0,68,0.00,,,-99.99,Weather View 32 v60,2013-08-27 23:14:00,
2013-08-27 18:27:00,89.0,77.0,29.82,WSW,247,3.0,11.0,68,0.00,,,-99.99,Weather View 32 v60,2013-08-27 23:27:00,
2013-08-27 18:44:00,88.0,76.9,29.82,South,180,0.0,11.0,70,0.00,,,-99.99,Weather View 32 v60,2013-08-27 23:44:00,
2013-08-27 18:59:00,88.0,77.8,29.83,WSW,247,2.0,11.0,72,0.00,,,-99.99,Weather View 32 v60,2013-08-27 23:59:00,
2013-08-27 19:14:00,88.0,77.4,29.83,South,180,0.0,10.0,71,0.00,,,-99.99,Weather View 32 v60,2013-08-28 00:14:00,
2013-08-27 19:28:00,88.0,77.4,29.83,South,180,0.0,10.0,71,0.00,,,-99.99,Weather View 32 v60,2013-08-28 00:28:00,
2013-08-27 19:44:00,86.0,75.9,29.84,WNW,292,0.0,8.0,72,0.00,,,-99.99,Weather View 32 v60,2013-08-28 00:44:00,
2013-08-27 19:59:00,85.0,76.1,29.84,West,270,0.0,8.0,75,0.00,,,-99.99,Weather View 32 v60,2013-08-28 00:59:00,
2013-08-27 20:14:00,84.0,76.4,29.85,WSW,247,0.0,7.0,78,0.00,,,-99.99,Weather View 32 v60,2013-08-28 01:14:00,
2013-08-27 20:28:00,84.0,76.4,29.85,WSW,247,0.0,7.0,78,0.00,,,-99.99,Weather View 32 v60,2013-08-28 01:28:00,
2013-08-27 20:44:00,83.0,75.8,29.86,NNE,22,0.0,0.0,79,0.00,,,-99.99,Weather View 32 v60,2013-08-28 01:44:00,
2013-08-27 20:59:00,82.0,75.6,29.87,West,270,0.0,0.0,81,0.00,,,-99.99,Weather View 32 v60,2013-08-28 01:59:00,
2013-08-27 21:14:00,81.0,74.6,29.87,West,270,0.0,0.0,81,0.00,,,-99.99,Weather View 32 v60,2013-08-28 02:14:00,
2013-08-27 21:29:00,81.0,74.6,29.87,West,270,0.0,0.0,81,0.00,,,-99.99,Weather View 32 v60,2013-08-28 02:29:00,
2013-08-27 21:44:00,79.0,72.6,29.89,ENE,67,0.0,0.0,81,0.00,,,-99.99,Weather View 32 v60,2013-08-28 02:44:00,
2013-08-27 21:59:00,79.0,71.9,29.89,ENE,67,0.0,0.0,79,0.00,,,-99.99,Weather View 32 v60,2013-08-28 02:59:00,
2013-08-27 22:14:00,78.0,70.9,29.90,NE,45,0.0,0.0,79,0.00,,,-99.99,Weather View 32 v60,2013-08-28 03:14:00,
2013-08-27 22:29:00,77.0,69.6,29.90,NE,45,0.0,0.0,78,0.00,,,-99.99,Weather View 32 v60,2013-08-28 03:29:00,
2013-08-27 22:44:00,77.0,68.4,29.91,ENE,67,0.0,0.0,75,0.00,,,-99.99,Weather View 32 v60,2013-08-28 03:44:00,
2013-08-27 22:59:00,76.0,65.9,29.91,ESE,112,0.0,0.0,71,0.00,,,-99.99,Weather View 32 v60,2013-08-28 03:59:00,
2013-08-27 23:14:00,76.0,65.9,29.92,ESE,112,0.0,0.0,71,0.00,,,-99.99,Weather View 32 v60,2013-08-28 04:14:00,
2013-08-27 23:29:00,75.0,62.8,29.92,ESE,112,0.0,0.0,66,0.00,,,-99.99,Weather View 32 v60,2013-08-28 04:29:00,
2013-08-27 23:30:00,75.0,62.8,29.92,ESE,112,0.0,0.0,66,0.00,,,-99.99,Weather View 32 v60,2013-08-28 04:30:00,
2013-08-27 23:44:00,75.0,62.8,29.92,ESE,112,0.0,0.0,66,0.00,,,-99.99,Weather View 32 v60,2013-08-28 04:44:00,
2013-08-27 23:59:00,75.0,62.0,29.92,ENE,67,0.0,0.0,64,0.00,,,-99.99,Weather View 32 v60,2013-08-28 04:59:00,